sensor_id;sensor_type;location;lat;lon;timestamp;temperature;humidity
27671;DHT22;15077;49.704;9.908;2022-08-25T00:01:52;24.90;43.40
27671;DHT22;15077;49.704;9.908;2022-08-25T00:04:21;24.90;43.60
27671;DHT22;15077;49.704;9.908;2022-08-25T00:06:48;24.80;43.40
27671;DHT22;15077;49.704;9.908;2022-08-25T00:09:16;24.70;43.40
27671;DHT22;15077;49.704;9.908;2022-08-25T00:11:45;24.70;43.80
27671;DHT22;15077;49.704;9.908;2022-08-25T00:14:18;24.70;43.80
27671;DHT22;15077;49.704;9.908;2022-08-25T00:16:47;24.70;44.00
27671;DHT22;15077;49.704;9.908;2022-08-25T00:19:19;24.60;44.60
27671;DHT22;15077;49.704;9.908;2022-08-25T00:21:48;24.60;44.20
27671;DHT22;15077;49.704;9.908;2022-08-25T00:24:16;24.50;44.00
27671;DHT22;15077;49.704;9.908;2022-08-25T00:26:45;24.50;44.20
27671;DHT22;15077;49.704;9.908;2022-08-25T00:29:13;24.50;44.40
27671;DHT22;15077;49.704;9.908;2022-08-25T00:31:41;24.50;44.40
27671;DHT22;15077;49.704;9.908;2022-08-25T00:34:11;24.50;44.40
27671;DHT22;15077;49.704;9.908;2022-08-25T00:36:47;24.40;44.50
27671;DHT22;15077;49.704;9.908;2022-08-25T00:39:17;24.40;44.50
27671;DHT22;15077;49.704;9.908;2022-08-25T00:41:46;24.40;44.60
27671;DHT22;15077;49.704;9.908;2022-08-25T00:44:14;24.30;44.60
27671;DHT22;15077;49.704;9.908;2022-08-25T00:46:55;24.30;44.70
27671;DHT22;15077;49.704;9.908;2022-08-25T00:54:41;24.20;44.90
27671;DHT22;15077;49.704;9.908;2022-08-25T00:57:14;24.20;45.20
27671;DHT22;15077;49.704;9.908;2022-08-25T00:59:43;24.10;45.10
27671;DHT22;15077;49.704;9.908;2022-08-25T01:02:10;24.10;45.10
27671;DHT22;15077;49.704;9.908;2022-08-25T01:04:37;24.10;45.20
27671;DHT22;15077;49.704;9.908;2022-08-25T01:07:03;24.10;45.90
27671;DHT22;15077;49.704;9.908;2022-08-25T01:09:30;24.00;45.40
27671;DHT22;15077;49.704;9.908;2022-08-25T01:11:58;24.00;45.50
27671;DHT22;15077;49.704;9.908;2022-08-25T01:14:26;24.00;45.50
27671;DHT22;15077;49.704;9.908;2022-08-25T01:16:53;23.90;45.50
27671;DHT22;15077;49.704;9.908;2022-08-25T01:19:20;23.90;45.60
27671;DHT22;15077;49.704;9.908;2022-08-25T01:21:48;23.80;45.70
27671;DHT22;15077;49.704;9.908;2022-08-25T01:27:12;23.80;45.90
27671;DHT22;15077;49.704;9.908;2022-08-25T01:29:38;23.70;45.80
27671;DHT22;15077;49.704;9.908;2022-08-25T01:32:07;23.70;45.80
27671;DHT22;15077;49.704;9.908;2022-08-25T01:34:37;23.70;45.90
27671;DHT22;15077;49.704;9.908;2022-08-25T01:37:05;23.60;46.00
27671;DHT22;15077;49.704;9.908;2022-08-25T01:39:33;23.60;46.00
27671;DHT22;15077;49.704;9.908;2022-08-25T01:45:08;23.60;46.30
27671;DHT22;15077;49.704;9.908;2022-08-25T01:47:36;23.60;46.10
27671;DHT22;15077;49.704;9.908;2022-08-25T01:50:04;23.50;46.20
27671;DHT22;15077;49.704;9.908;2022-08-25T01:52:48;23.50;46.20
27671;DHT22;15077;49.704;9.908;2022-08-25T01:55:24;23.50;46.50
27671;DHT22;15077;49.704;9.908;2022-08-25T01:57:50;23.50;46.00
27671;DHT22;15077;49.704;9.908;2022-08-25T02:00:17;23.40;46.10
27671;DHT22;15077;49.704;9.908;2022-08-25T02:02:44;23.40;46.30
27671;DHT22;15077;49.704;9.908;2022-08-25T02:05:11;23.40;46.40
27671;DHT22;15077;49.704;9.908;2022-08-25T02:07:39;23.30;46.60
27671;DHT22;15077;49.704;9.908;2022-08-25T02:10:08;23.30;46.60
27671;DHT22;15077;49.704;9.908;2022-08-25T02:12:37;23.30;46.90
27671;DHT22;15077;49.704;9.908;2022-08-25T02:15:05;23.30;46.80
27671;DHT22;15077;49.704;9.908;2022-08-25T02:17:33;23.20;46.90
27671;DHT22;15077;49.704;9.908;2022-08-25T02:20:02;23.20;47.00
27671;DHT22;15077;49.704;9.908;2022-08-25T02:22:33;23.20;47.10
27671;DHT22;15077;49.704;9.908;2022-08-25T02:24:59;23.20;47.10
27671;DHT22;15077;49.704;9.908;2022-08-25T02:27:25;23.10;47.00
27671;DHT22;15077;49.704;9.908;2022-08-25T02:29:50;23.10;47.20
27671;DHT22;15077;49.704;9.908;2022-08-25T02:32:16;23.10;47.30
27671;DHT22;15077;49.704;9.908;2022-08-25T02:34:42;23.10;47.40
27671;DHT22;15077;49.704;9.908;2022-08-25T02:37:08;23.00;47.30
27671;DHT22;15077;49.704;9.908;2022-08-25T02:39:34;23.00;47.40
27671;DHT22;15077;49.704;9.908;2022-08-25T02:42:01;23.00;47.60
27671;DHT22;15077;49.704;9.908;2022-08-25T02:44:27;23.00;47.70
27671;DHT22;15077;49.704;9.908;2022-08-25T02:46:53;23.00;47.70
27671;DHT22;15077;49.704;9.908;2022-08-25T02:49:19;22.90;47.70
27671;DHT22;15077;49.704;9.908;2022-08-25T02:51:45;22.90;47.80
27671;DHT22;15077;49.704;9.908;2022-08-25T02:54:11;22.90;47.90
27671;DHT22;15077;49.704;9.908;2022-08-25T02:56:36;22.90;47.80
27671;DHT22;15077;49.704;9.908;2022-08-25T02:59:03;22.90;47.90
27671;DHT22;15077;49.704;9.908;2022-08-25T03:01:30;22.90;47.90
27671;DHT22;15077;49.704;9.908;2022-08-25T03:03:57;22.80;48.00
27671;DHT22;15077;49.704;9.908;2022-08-25T03:06:23;22.80;48.00
27671;DHT22;15077;49.704;9.908;2022-08-25T03:08:50;22.80;48.60
27671;DHT22;15077;49.704;9.908;2022-08-25T03:11:17;22.80;48.00
27671;DHT22;15077;49.704;9.908;2022-08-25T03:13:43;22.80;48.20
27671;DHT22;15077;49.704;9.908;2022-08-25T03:16:09;22.70;48.30
27671;DHT22;15077;49.704;9.908;2022-08-25T03:18:36;22.70;48.30
27671;DHT22;15077;49.704;9.908;2022-08-25T03:21:03;22.70;48.30
27671;DHT22;15077;49.704;9.908;2022-08-25T03:23:30;22.70;48.30
27671;DHT22;15077;49.704;9.908;2022-08-25T03:25:56;22.70;48.50
27671;DHT22;15077;49.704;9.908;2022-08-25T03:28:40;22.60;48.50
27671;DHT22;15077;49.704;9.908;2022-08-25T03:31:07;22.60;48.50
27671;DHT22;15077;49.704;9.908;2022-08-25T03:33:33;22.60;48.50
27671;DHT22;15077;49.704;9.908;2022-08-25T03:36:01;22.60;48.50
27671;DHT22;15077;49.704;9.908;2022-08-25T03:38:27;22.50;48.60
27671;DHT22;15077;49.704;9.908;2022-08-25T03:40:53;22.50;48.60
27671;DHT22;15077;49.704;9.908;2022-08-25T03:43:19;22.50;48.70
27671;DHT22;15077;49.704;9.908;2022-08-25T03:45:46;22.50;48.70
27671;DHT22;15077;49.704;9.908;2022-08-25T03:48:13;22.40;48.80
27671;DHT22;15077;49.704;9.908;2022-08-25T03:50:49;22.40;48.80
27671;DHT22;15077;49.704;9.908;2022-08-25T03:53:19;22.40;49.10
27671;DHT22;15077;49.704;9.908;2022-08-25T03:55:46;22.40;48.90
27671;DHT22;15077;49.704;9.908;2022-08-25T03:58:13;22.30;48.80
27671;DHT22;15077;49.704;9.908;2022-08-25T04:00:39;22.30;49.00
27671;DHT22;15077;49.704;9.908;2022-08-25T04:03:05;22.30;49.00
27671;DHT22;15077;49.704;9.908;2022-08-25T04:05:31;22.30;50.10
27671;DHT22;15077;49.704;9.908;2022-08-25T04:07:57;22.20;49.70
27671;DHT22;15077;49.704;9.908;2022-08-25T04:10:23;22.20;49.60
27671;DHT22;15077;49.704;9.908;2022-08-25T04:12:49;22.20;49.50
27671;DHT22;15077;49.704;9.908;2022-08-25T04:15:15;22.20;49.60
27671;DHT22;15077;49.704;9.908;2022-08-25T04:17:41;22.20;49.60
27671;DHT22;15077;49.704;9.908;2022-08-25T04:20:08;22.10;49.60
27671;DHT22;15077;49.704;9.908;2022-08-25T04:22:36;22.10;49.70
27671;DHT22;15077;49.704;9.908;2022-08-25T04:25:04;22.10;49.80
27671;DHT22;15077;49.704;9.908;2022-08-25T04:27:30;22.10;49.80
27671;DHT22;15077;49.704;9.908;2022-08-25T04:29:56;22.10;49.70
27671;DHT22;15077;49.704;9.908;2022-08-25T04:32:22;22.10;49.70
27671;DHT22;15077;49.704;9.908;2022-08-25T04:34:48;22.10;49.80
27671;DHT22;15077;49.704;9.908;2022-08-25T04:37:14;22.10;50.00
27671;DHT22;15077;49.704;9.908;2022-08-25T04:39:41;22.10;50.00
27671;DHT22;15077;49.704;9.908;2022-08-25T04:42:07;22.10;50.10
27671;DHT22;15077;49.704;9.908;2022-08-25T04:44:33;22.10;50.10
27671;DHT22;15077;49.704;9.908;2022-08-25T04:46:59;22.00;50.00
27671;DHT22;15077;49.704;9.908;2022-08-25T04:49:26;22.00;50.10
27671;DHT22;15077;49.704;9.908;2022-08-25T04:51:53;22.00;50.10
27671;DHT22;15077;49.704;9.908;2022-08-25T04:54:20;22.00;50.20
27671;DHT22;15077;49.704;9.908;2022-08-25T04:56:48;22.00;50.30
27671;DHT22;15077;49.704;9.908;2022-08-25T04:59:16;22.00;50.50
27671;DHT22;15077;49.704;9.908;2022-08-25T05:01:44;22.00;50.50
27671;DHT22;15077;49.704;9.908;2022-08-25T05:04:13;22.00;50.50
27671;DHT22;15077;49.704;9.908;2022-08-25T05:06:41;22.00;50.60
27671;DHT22;15077;49.704;9.908;2022-08-25T05:09:09;22.00;50.50
27671;DHT22;15077;49.704;9.908;2022-08-25T05:11:35;22.00;50.60
27671;DHT22;15077;49.704;9.908;2022-08-25T05:14:01;22.00;50.50
27671;DHT22;15077;49.704;9.908;2022-08-25T05:16:28;22.00;50.70
27671;DHT22;15077;49.704;9.908;2022-08-25T05:18:55;21.90;50.70
27671;DHT22;15077;49.704;9.908;2022-08-25T05:21:24;21.90;50.80
27671;DHT22;15077;49.704;9.908;2022-08-25T05:23:57;21.90;51.00
27671;DHT22;15077;49.704;9.908;2022-08-25T05:26:26;21.90;51.30
27671;DHT22;15077;49.704;9.908;2022-08-25T05:28:55;21.90;51.30
27671;DHT22;15077;49.704;9.908;2022-08-25T05:31:24;21.90;51.30
27671;DHT22;15077;49.704;9.908;2022-08-25T05:33:51;21.90;51.60
27671;DHT22;15077;49.704;9.908;2022-08-25T05:36:19;21.90;51.80
27671;DHT22;15077;49.704;9.908;2022-08-25T05:38:46;22.00;52.20
27671;DHT22;15077;49.704;9.908;2022-08-25T05:41:15;22.00;52.40
27671;DHT22;15077;49.704;9.908;2022-08-25T05:43:44;22.00;52.50
27671;DHT22;15077;49.704;9.908;2022-08-25T05:46:13;22.00;52.60
27671;DHT22;15077;49.704;9.908;2022-08-25T05:48:40;22.00;52.70
27671;DHT22;15077;49.704;9.908;2022-08-25T05:51:08;22.00;52.60
27671;DHT22;15077;49.704;9.908;2022-08-25T05:53:36;22.10;53.20
27671;DHT22;15077;49.704;9.908;2022-08-25T05:56:04;22.10;53.40
27671;DHT22;15077;49.704;9.908;2022-08-25T05:58:30;22.10;54.20
27671;DHT22;15077;49.704;9.908;2022-08-25T06:00:57;22.10;54.10
27671;DHT22;15077;49.704;9.908;2022-08-25T06:03:48;22.20;54.70
27671;DHT22;15077;49.704;9.908;2022-08-25T06:06:17;22.20;55.50
27671;DHT22;15077;49.704;9.908;2022-08-25T06:08:44;22.20;55.70
27671;DHT22;15077;49.704;9.908;2022-08-25T06:11:12;22.20;55.80
27671;DHT22;15077;49.704;9.908;2022-08-25T06:13:39;22.20;56.20
27671;DHT22;15077;49.704;9.908;2022-08-25T06:16:06;22.30;56.80
27671;DHT22;15077;49.704;9.908;2022-08-25T06:18:32;22.30;57.20
27671;DHT22;15077;49.704;9.908;2022-08-25T06:20:58;22.30;56.80
27671;DHT22;15077;49.704;9.908;2022-08-25T06:23:23;22.30;56.90
27671;DHT22;15077;49.704;9.908;2022-08-25T06:25:51;22.30;56.80
27671;DHT22;15077;49.704;9.908;2022-08-25T06:28:18;22.40;56.90
27671;DHT22;15077;49.704;9.908;2022-08-25T06:30:46;22.40;57.10
27671;DHT22;15077;49.704;9.908;2022-08-25T06:33:12;22.40;57.40
27671;DHT22;15077;49.704;9.908;2022-08-25T06:35:43;22.50;57.70
27671;DHT22;15077;49.704;9.908;2022-08-25T06:38:09;22.60;57.60
27671;DHT22;15077;49.704;9.908;2022-08-25T06:40:36;22.60;57.70
27671;DHT22;15077;49.704;9.908;2022-08-25T06:43:02;22.60;57.70
27671;DHT22;15077;49.704;9.908;2022-08-25T06:45:32;22.60;57.70
27671;DHT22;15077;49.704;9.908;2022-08-25T06:47:58;22.70;57.70
27671;DHT22;15077;49.704;9.908;2022-08-25T06:50:24;22.70;57.50
27671;DHT22;15077;49.704;9.908;2022-08-25T06:52:49;22.80;57.50
27671;DHT22;15077;49.704;9.908;2022-08-25T06:55:16;22.90;57.70
27671;DHT22;15077;49.704;9.908;2022-08-25T06:57:42;22.90;57.60
27671;DHT22;15077;49.704;9.908;2022-08-25T07:00:09;23.00;57.80
27671;DHT22;15077;49.704;9.908;2022-08-25T07:02:36;23.10;57.80
27671;DHT22;15077;49.704;9.908;2022-08-25T07:05:03;23.10;57.60
27671;DHT22;15077;49.704;9.908;2022-08-25T07:07:31;23.20;57.50
27671;DHT22;15077;49.704;9.908;2022-08-25T07:09:57;23.30;58.30
27671;DHT22;15077;49.704;9.908;2022-08-25T07:12:24;23.30;58.00
27671;DHT22;15077;49.704;9.908;2022-08-25T07:14:50;23.40;58.60
27671;DHT22;15077;49.704;9.908;2022-08-25T07:17:17;23.50;58.40
27671;DHT22;15077;49.704;9.908;2022-08-25T07:19:42;23.60;58.80
27671;DHT22;15077;49.704;9.908;2022-08-25T07:22:08;23.70;58.90
27671;DHT22;15077;49.704;9.908;2022-08-25T07:24:34;23.70;58.70
27671;DHT22;15077;49.704;9.908;2022-08-25T07:27:00;23.80;58.90
27671;DHT22;15077;49.704;9.908;2022-08-25T07:29:27;23.90;59.20
27671;DHT22;15077;49.704;9.908;2022-08-25T07:31:54;24.00;59.50
27671;DHT22;15077;49.704;9.908;2022-08-25T07:34:20;24.10;59.30
27671;DHT22;15077;49.704;9.908;2022-08-25T07:37:04;24.20;59.40
27671;DHT22;15077;49.704;9.908;2022-08-25T07:39:31;24.30;58.80
27671;DHT22;15077;49.704;9.908;2022-08-25T07:41:58;24.40;58.80
27671;DHT22;15077;49.704;9.908;2022-08-25T07:44:25;24.50;58.60
27671;DHT22;15077;49.704;9.908;2022-08-25T07:46:52;24.50;58.70
27671;DHT22;15077;49.704;9.908;2022-08-25T07:49:19;24.60;58.40
27671;DHT22;15077;49.704;9.908;2022-08-25T07:51:47;24.70;58.10
27671;DHT22;15077;49.704;9.908;2022-08-25T07:54:15;24.80;58.20
27671;DHT22;15077;49.704;9.908;2022-08-25T07:56:40;24.90;58.10
27671;DHT22;15077;49.704;9.908;2022-08-25T07:59:08;24.90;58.10
27671;DHT22;15077;49.704;9.908;2022-08-25T08:01:34;25.00;58.00
27671;DHT22;15077;49.704;9.908;2022-08-25T08:04:01;25.00;57.70
27671;DHT22;15077;49.704;9.908;2022-08-25T08:06:28;25.10;57.50
27671;DHT22;15077;49.704;9.908;2022-08-25T08:08:54;25.20;57.60
27671;DHT22;15077;49.704;9.908;2022-08-25T08:11:26;25.30;57.50
27671;DHT22;15077;49.704;9.908;2022-08-25T08:13:54;25.30;57.20
27671;DHT22;15077;49.704;9.908;2022-08-25T08:16:23;25.40;56.70
27671;DHT22;15077;49.704;9.908;2022-08-25T08:18:49;25.40;56.70
27671;DHT22;15077;49.704;9.908;2022-08-25T08:21:30;25.50;56.90
27671;DHT22;15077;49.704;9.908;2022-08-25T08:23:59;25.60;56.80
27671;DHT22;15077;49.704;9.908;2022-08-25T08:26:27;25.60;56.80
27671;DHT22;15077;49.704;9.908;2022-08-25T08:28:53;25.70;56.70
27671;DHT22;15077;49.704;9.908;2022-08-25T08:31:22;25.70;56.50
27671;DHT22;15077;49.704;9.908;2022-08-25T08:33:49;25.80;56.50
27671;DHT22;15077;49.704;9.908;2022-08-25T08:36:16;25.80;56.40
27671;DHT22;15077;49.704;9.908;2022-08-25T08:38:43;25.90;56.40
27671;DHT22;15077;49.704;9.908;2022-08-25T08:52:56;26.40;56.10
27671;DHT22;15077;49.704;9.908;2022-08-25T08:55:38;26.50;55.90
27671;DHT22;15077;49.704;9.908;2022-08-25T08:58:43;26.60;55.80
27671;DHT22;15077;49.704;9.908;2022-08-25T09:01:29;26.70;55.50
27671;DHT22;15077;49.704;9.908;2022-08-25T09:04:19;26.80;55.40
27671;DHT22;15077;49.704;9.908;2022-08-25T09:06:51;26.90;55.30
27671;DHT22;15077;49.704;9.908;2022-08-25T09:09:27;27.10;55.00
27671;DHT22;15077;49.704;9.908;2022-08-25T09:17:20;27.40;54.50
27671;DHT22;15077;49.704;9.908;2022-08-25T09:29:06;27.90;53.80
27671;DHT22;15077;49.704;9.908;2022-08-25T09:31:46;28.00;53.60
27671;DHT22;15077;49.704;9.908;2022-08-25T09:34:18;28.10;53.30
27671;DHT22;15077;49.704;9.908;2022-08-25T09:36:46;28.20;52.70
27671;DHT22;15077;49.704;9.908;2022-08-25T09:39:15;28.30;52.80
27671;DHT22;15077;49.704;9.908;2022-08-25T09:41:55;28.40;52.50
27671;DHT22;15077;49.704;9.908;2022-08-25T09:44:24;28.50;52.60
27671;DHT22;15077;49.704;9.908;2022-08-25T09:52:40;28.90;52.30
27671;DHT22;15077;49.704;9.908;2022-08-25T09:57:50;29.30;51.80
27671;DHT22;15077;49.704;9.908;2022-08-25T10:00:22;29.40;51.50
27671;DHT22;15077;49.704;9.908;2022-08-25T10:03:05;29.50;50.70
27671;DHT22;15077;49.704;9.908;2022-08-25T10:05:33;29.70;50.80
27671;DHT22;15077;49.704;9.908;2022-08-25T10:08:39;29.70;49.90
27671;DHT22;15077;49.704;9.908;2022-08-25T10:11:40;29.80;50.00
27671;DHT22;15077;49.704;9.908;2022-08-25T10:22:34;30.30;49.00
27671;DHT22;15077;49.704;9.908;2022-08-25T10:25:03;30.30;48.60
27671;DHT22;15077;49.704;9.908;2022-08-25T10:27:43;30.40;48.60
27671;DHT22;15077;49.704;9.908;2022-08-25T10:38:44;30.70;47.40
27671;DHT22;15077;49.704;9.908;2022-08-25T10:41:47;30.70;47.70
27671;DHT22;15077;49.704;9.908;2022-08-25T10:53:44;30.50;47.10
27671;DHT22;15077;49.704;9.908;2022-08-25T10:56:30;30.50;46.90
27671;DHT22;15077;49.704;9.908;2022-08-25T11:04:43;30.40;47.10
27671;DHT22;15077;49.704;9.908;2022-08-25T11:07:35;30.40;47.10
27671;DHT22;15077;49.704;9.908;2022-08-25T11:10:11;30.50;47.20
27671;DHT22;15077;49.704;9.908;2022-08-25T11:12:49;30.60;46.90
27671;DHT22;15077;49.704;9.908;2022-08-25T11:18:02;30.80;47.30
27671;DHT22;15077;49.704;9.908;2022-08-25T11:23:40;31.00;47.20
27671;DHT22;15077;49.704;9.908;2022-08-25T11:26:14;31.20;46.50
27671;DHT22;15077;49.704;9.908;2022-08-25T11:28:53;31.30;46.60
27671;DHT22;15077;49.704;9.908;2022-08-25T11:31:28;31.50;46.40
27671;DHT22;15077;49.704;9.908;2022-08-25T11:33:56;31.60;45.70
27671;DHT22;15077;49.704;9.908;2022-08-25T11:36:32;31.80;45.50
27671;DHT22;15077;49.704;9.908;2022-08-25T11:39:12;31.90;45.10
27671;DHT22;15077;49.704;9.908;2022-08-25T11:42:34;32.00;45.60
27671;DHT22;15077;49.704;9.908;2022-08-25T11:48:35;32.40;45.40
27671;DHT22;15077;49.704;9.908;2022-08-25T11:53:37;32.70;44.90
27671;DHT22;15077;49.704;9.908;2022-08-25T11:56:06;32.90;43.80
27671;DHT22;15077;49.704;9.908;2022-08-25T11:58:41;33.00;42.40
27671;DHT22;15077;49.704;9.908;2022-08-25T12:12:36;33.40;40.80
27671;DHT22;15077;49.704;9.908;2022-08-25T12:23:40;33.20;41.30
27671;DHT22;15077;49.704;9.908;2022-08-25T12:37:24;33.60;41.30
27671;DHT22;15077;49.704;9.908;2022-08-25T12:39:59;33.70;41.10
27671;DHT22;15077;49.704;9.908;2022-08-25T12:42:36;33.80;40.90
27671;DHT22;15077;49.704;9.908;2022-08-25T12:47:39;34.10;40.00
27671;DHT22;15077;49.704;9.908;2022-08-25T12:50:39;34.10;39.80
27671;DHT22;15077;49.704;9.908;2022-08-25T12:53:40;34.20;39.50
27671;DHT22;15077;49.704;9.908;2022-08-25T12:56:31;34.20;39.20
27671;DHT22;15077;49.704;9.908;2022-08-25T12:59:14;34.10;38.60
27671;DHT22;15077;49.704;9.908;2022-08-25T13:10:45;33.80;39.50
27671;DHT22;15077;49.704;9.908;2022-08-25T13:16:20;33.80;38.90
27671;DHT22;15077;49.704;9.908;2022-08-25T13:18:48;33.80;39.40
27671;DHT22;15077;49.704;9.908;2022-08-25T13:21:23;33.70;39.50
27671;DHT22;15077;49.704;9.908;2022-08-25T13:23:58;33.80;39.50
27671;DHT22;15077;49.704;9.908;2022-08-25T13:26:31;33.90;39.20
27671;DHT22;15077;49.704;9.908;2022-08-25T13:31:36;33.90;39.00
27671;DHT22;15077;49.704;9.908;2022-08-25T13:34:19;33.90;38.30
27671;DHT22;15077;49.704;9.908;2022-08-25T13:36:49;33.90;38.70
27671;DHT22;15077;49.704;9.908;2022-08-25T13:39:34;33.90;38.50
27671;DHT22;15077;49.704;9.908;2022-08-25T13:42:04;33.90;38.30
27671;DHT22;15077;49.704;9.908;2022-08-25T13:44:37;33.90;38.20
27671;DHT22;15077;49.704;9.908;2022-08-25T13:47:11;33.90;38.40
27671;DHT22;15077;49.704;9.908;2022-08-25T13:49:46;33.90;38.70
27671;DHT22;15077;49.704;9.908;2022-08-25T13:52:30;33.90;39.00
27671;DHT22;15077;49.704;9.908;2022-08-25T13:54:58;33.90;39.10
27671;DHT22;15077;49.704;9.908;2022-08-25T13:57:29;33.90;38.80
27671;DHT22;15077;49.704;9.908;2022-08-25T14:00:04;33.90;38.80
27671;DHT22;15077;49.704;9.908;2022-08-25T14:02:47;33.80;38.40
27671;DHT22;15077;49.704;9.908;2022-08-25T14:05:33;33.90;38.80
27671;DHT22;15077;49.704;9.908;2022-08-25T14:08:20;33.90;38.20
27671;DHT22;15077;49.704;9.908;2022-08-25T14:11:10;33.90;37.80
27671;DHT22;15077;49.704;9.908;2022-08-25T14:13:42;33.90;38.10
27671;DHT22;15077;49.704;9.908;2022-08-25T14:16:18;34.00;38.20
27671;DHT22;15077;49.704;9.908;2022-08-25T14:18:50;34.00;38.10
27671;DHT22;15077;49.704;9.908;2022-08-25T14:21:20;34.10;37.80
27671;DHT22;15077;49.704;9.908;2022-08-25T14:23:52;34.10;37.70
27671;DHT22;15077;49.704;9.908;2022-08-25T14:26:19;34.10;37.10
27671;DHT22;15077;49.704;9.908;2022-08-25T14:28:46;34.10;37.30
27671;DHT22;15077;49.704;9.908;2022-08-25T14:31:30;34.10;37.20
27671;DHT22;15077;49.704;9.908;2022-08-25T14:36:28;34.20;37.20
27671;DHT22;15077;49.704;9.908;2022-08-25T14:38:56;34.20;36.80
27671;DHT22;15077;49.704;9.908;2022-08-25T14:41:23;34.20;37.30
27671;DHT22;15077;49.704;9.908;2022-08-25T14:43:50;34.20;37.10
27671;DHT22;15077;49.704;9.908;2022-08-25T14:46:21;34.30;37.00
27671;DHT22;15077;49.704;9.908;2022-08-25T14:48:53;34.30;36.90
27671;DHT22;15077;49.704;9.908;2022-08-25T14:51:23;34.40;36.80
27671;DHT22;15077;49.704;9.908;2022-08-25T14:53:51;34.40;36.50
27671;DHT22;15077;49.704;9.908;2022-08-25T14:56:20;34.50;36.60
27671;DHT22;15077;49.704;9.908;2022-08-25T14:58:46;34.50;36.80
27671;DHT22;15077;49.704;9.908;2022-08-25T15:01:13;34.50;36.80
27671;DHT22;15077;49.704;9.908;2022-08-25T15:03:43;34.50;37.00
27671;DHT22;15077;49.704;9.908;2022-08-25T15:06:14;34.60;36.90
27671;DHT22;15077;49.704;9.908;2022-08-25T15:08:41;34.60;37.10
27671;DHT22;15077;49.704;9.908;2022-08-25T15:11:27;34.70;37.10
27671;DHT22;15077;49.704;9.908;2022-08-25T15:13:55;34.80;37.00
27671;DHT22;15077;49.704;9.908;2022-08-25T15:16:26;34.90;37.00
27671;DHT22;15077;49.704;9.908;2022-08-25T15:18:54;35.00;37.00
27671;DHT22;15077;49.704;9.908;2022-08-25T15:21:21;35.10;36.90
27671;DHT22;15077;49.704;9.908;2022-08-25T15:23:47;35.20;36.50
27671;DHT22;15077;49.704;9.908;2022-08-25T15:26:14;35.30;36.60
27671;DHT22;15077;49.704;9.908;2022-08-25T15:28:45;35.30;36.10
27671;DHT22;15077;49.704;9.908;2022-08-25T15:31:14;35.30;35.70
27671;DHT22;15077;49.704;9.908;2022-08-25T15:33:41;35.30;35.90
27671;DHT22;15077;49.704;9.908;2022-08-25T15:36:09;35.30;35.80
27671;DHT22;15077;49.704;9.908;2022-08-25T15:38:38;35.20;36.20
27671;DHT22;15077;49.704;9.908;2022-08-25T15:41:06;35.20;36.60
27671;DHT22;15077;49.704;9.908;2022-08-25T15:43:33;35.20;36.60
27671;DHT22;15077;49.704;9.908;2022-08-25T15:45:59;35.00;36.70
27671;DHT22;15077;49.704;9.908;2022-08-25T15:48:25;34.90;36.80
27671;DHT22;15077;49.704;9.908;2022-08-25T15:50:55;34.70;36.90
27671;DHT22;15077;49.704;9.908;2022-08-25T15:53:23;34.60;37.20
27671;DHT22;15077;49.704;9.908;2022-08-25T15:55:51;34.30;37.20
27671;DHT22;15077;49.704;9.908;2022-08-25T15:58:18;34.20;37.50
27671;DHT22;15077;49.704;9.908;2022-08-25T16:00:45;34.10;37.70
27671;DHT22;15077;49.704;9.908;2022-08-25T16:03:12;34.00;37.90
27671;DHT22;15077;49.704;9.908;2022-08-25T16:05:39;33.90;38.00
27671;DHT22;15077;49.704;9.908;2022-08-25T16:08:07;33.80;38.20
27671;DHT22;15077;49.704;9.908;2022-08-25T16:10:36;33.70;38.30
27671;DHT22;15077;49.704;9.908;2022-08-25T16:13:04;33.60;38.40
27671;DHT22;15077;49.704;9.908;2022-08-25T16:15:32;33.60;38.60
27671;DHT22;15077;49.704;9.908;2022-08-25T16:17:59;33.50;38.70
27671;DHT22;15077;49.704;9.908;2022-08-25T16:20:27;33.50;38.80
27671;DHT22;15077;49.704;9.908;2022-08-25T16:22:54;33.50;38.80
27671;DHT22;15077;49.704;9.908;2022-08-25T16:25:20;33.50;38.80
27671;DHT22;15077;49.704;9.908;2022-08-25T16:27:46;33.60;38.80
27671;DHT22;15077;49.704;9.908;2022-08-25T16:30:13;33.50;38.60
27671;DHT22;15077;49.704;9.908;2022-08-25T16:32:39;33.60;38.70
27671;DHT22;15077;49.704;9.908;2022-08-25T16:35:06;33.60;38.80
27671;DHT22;15077;49.704;9.908;2022-08-25T16:37:33;33.60;38.80
27671;DHT22;15077;49.704;9.908;2022-08-25T16:40:00;33.60;38.80
27671;DHT22;15077;49.704;9.908;2022-08-25T16:42:27;33.70;38.80
27671;DHT22;15077;49.704;9.908;2022-08-25T16:44:54;33.70;38.80
27671;DHT22;15077;49.704;9.908;2022-08-25T16:47:20;33.70;38.80
27671;DHT22;15077;49.704;9.908;2022-08-25T16:49:46;33.70;38.80
27671;DHT22;15077;49.704;9.908;2022-08-25T16:52:13;33.70;38.80
27671;DHT22;15077;49.704;9.908;2022-08-25T16:54:59;33.70;38.70
27671;DHT22;15077;49.704;9.908;2022-08-25T16:57:39;33.80;38.70
27671;DHT22;15077;49.704;9.908;2022-08-25T17:00:10;33.80;38.70
27671;DHT22;15077;49.704;9.908;2022-08-25T17:02:38;33.80;39.30
27671;DHT22;15077;49.704;9.908;2022-08-25T17:05:05;33.80;38.60
27671;DHT22;15077;49.704;9.908;2022-08-25T17:07:33;33.80;38.60
27671;DHT22;15077;49.704;9.908;2022-08-25T17:10:01;33.70;38.50
27671;DHT22;15077;49.704;9.908;2022-08-25T17:12:28;33.70;38.50
27671;DHT22;15077;49.704;9.908;2022-08-25T17:14:54;33.70;38.50
27671;DHT22;15077;49.704;9.908;2022-08-25T17:17:20;33.60;38.50
27671;DHT22;15077;49.704;9.908;2022-08-25T17:19:46;33.60;38.50
27671;DHT22;15077;49.704;9.908;2022-08-25T17:22:12;33.60;39.00
27671;DHT22;15077;49.704;9.908;2022-08-25T17:24:44;33.60;38.50
27671;DHT22;15077;49.704;9.908;2022-08-25T17:27:11;33.60;38.40
27671;DHT22;15077;49.704;9.908;2022-08-25T17:29:37;33.60;38.60
27671;DHT22;15077;49.704;9.908;2022-08-25T17:32:05;33.50;38.50
27671;DHT22;15077;49.704;9.908;2022-08-25T17:34:31;33.50;38.60
27671;DHT22;15077;49.704;9.908;2022-08-25T17:36:58;33.40;38.50
27671;DHT22;15077;49.704;9.908;2022-08-25T17:39:25;33.40;38.60
27671;DHT22;15077;49.704;9.908;2022-08-25T17:41:51;33.40;38.70
27671;DHT22;15077;49.704;9.908;2022-08-25T17:44:17;33.40;38.70
27671;DHT22;15077;49.704;9.908;2022-08-25T17:46:44;33.30;38.70
27671;DHT22;15077;49.704;9.908;2022-08-25T17:49:10;33.30;38.70
27671;DHT22;15077;49.704;9.908;2022-08-25T17:51:37;33.30;38.80
27671;DHT22;15077;49.704;9.908;2022-08-25T17:54:03;33.20;38.80
27671;DHT22;15077;49.704;9.908;2022-08-25T17:56:29;33.20;38.90
27671;DHT22;15077;49.704;9.908;2022-08-25T17:58:57;33.20;38.90
27671;DHT22;15077;49.704;9.908;2022-08-25T18:01:25;33.20;39.00
27671;DHT22;15077;49.704;9.908;2022-08-25T18:03:54;33.20;39.00
27671;DHT22;15077;49.704;9.908;2022-08-25T18:06:22;33.20;39.00
27671;DHT22;15077;49.704;9.908;2022-08-25T18:08:50;33.10;39.00